Time;durP1;ratioP1;P1;durP2;ratioP2;P2;SDS_P1;SDS_P2;PMS_P1;PMS_P2;Temp;Humidity;BMP_temperature;BMP_pressure;BME280_temperature;BME280_humidity;BME280_pressure;Samples;Min_cycle;Max_cycle;Signal;HPM_P1;HPM_P2
2022/04/22 00:02:19;;;;;;;10.88;7.60;;;;;;;;;;4998981;28;20420;-82
2022/04/22 00:04:45;;;;;;;10.15;7.05;;;;;;;;;;4998018;28;20438;-82
2022/04/22 00:07:13;;;;;;;13.87;6.70;;;;;;;;;;5002513;28;20497;-82
2022/04/22 00:09:39;;;;;;;8.63;6.25;;;;;;;;;;4998811;28;20463;-82
2022/04/22 00:12:06;;;;;;;10.03;6.10;;;;;;;;;;4999641;28;20490;-82
2022/04/22 00:14:32;;;;;;;9.83;6.37;;;;;;;;;;5001436;28;20525;-80
2022/04/22 00:16:59;;;;;;;10.73;6.30;;;;;;;;;;5000088;28;20428;-82
2022/04/22 00:19:25;;;;;;;11.00;6.47;;;;;;;;;;5003012;28;20442;-82
2022/04/22 00:21:53;;;;;;;9.75;6.30;;;;;;;;;;5003765;28;20434;-82
2022/04/22 00:24:20;;;;;;;7.70;5.23;;;;;;;;;;4999933;28;20565;-81
2022/04/22 00:26:47;;;;;;;8.13;5.72;;;;;;;;;;5000551;28;20441;-82
2022/04/22 00:29:13;;;;;;;7.55;5.20;;;;;;;;;;5003135;28;20425;-82
2022/04/22 00:31:39;;;;;;;6.63;4.82;;;;;;;;;;5003070;28;20438;-81
2022/04/22 00:34:06;;;;;;;10.60;5.13;;;;;;;;;;5002382;28;20441;-81
2022/04/22 00:36:32;;;;;;;7.45;4.85;;;;;;;;;;5004465;28;20430;-82
2022/04/22 00:38:58;;;;;;;7.15;5.15;;;;;;;;;;5001864;28;20510;-82
2022/04/22 00:41:26;;;;;;;8.50;5.60;;;;;;;;;;5004154;28;20448;-82
2022/04/22 00:43:53;;;;;;;7.50;5.10;;;;;;;;;;5001708;28;20498;-82
2022/04/22 00:46:19;;;;;;;8.05;5.00;;;;;;;;;;5002464;28;21164;-82
2022/04/22 00:48:45;;;;;;;9.75;5.10;;;;;;;;;;5001406;28;20420;-81
2022/04/22 00:51:12;;;;;;;7.72;5.50;;;;;;;;;;5003419;28;20924;-82
2022/04/22 00:53:40;;;;;;;7.20;4.80;;;;;;;;;;5002506;28;20461;-82
2022/04/22 00:56:10;;;;;;;7.90;5.30;;;;;;;;;;5002041;28;20520;-82
2022/04/22 00:58:39;;;;;;;8.80;4.85;;;;;;;;;;5004020;28;20439;-82
2022/04/22 01:01:05;;;;;;;6.43;5.05;;;;;;;;;;5001427;28;20432;-82
2022/04/22 01:03:32;;;;;;;6.40;4.97;;;;;;;;;;5003843;28;20479;-81
2022/04/22 01:11:23;;;;;;;8.23;5.50;;;;;;;;;;5003896;28;20424;-82
2022/04/22 01:13:51;;;;;;;7.47;5.90;;;;;;;;;;5001595;28;20432;-82
2022/04/22 01:16:17;;;;;;;10.55;5.90;;;;;;;;;;5004502;28;20500;-82
2022/04/22 01:18:43;;;;;;;7.78;5.50;;;;;;;;;;5000960;28;20532;-82
2022/04/22 01:21:11;;;;;;;7.32;5.60;;;;;;;;;;5004151;28;20527;-82
2022/04/22 01:23:38;;;;;;;8.80;5.20;;;;;;;;;;5003571;28;20438;-82
2022/04/22 01:26:04;;;;;;;11.30;6.47;;;;;;;;;;5002292;28;20675;-82
2022/04/22 01:28:31;;;;;;;12.23;5.70;;;;;;;;;;5003796;28;20483;-82
2022/04/22 01:30:58;;;;;;;8.13;5.50;;;;;;;;;;5002143;28;20438;-82
2022/04/22 01:33:24;;;;;;;9.00;5.40;;;;;;;;;;5002004;28;20678;-82
2022/04/22 01:35:50;;;;;;;8.65;5.45;;;;;;;;;;5005283;28;20442;-82
2022/04/22 01:38:18;;;;;;;11.40;5.90;;;;;;;;;;5003066;28;20941;-82
2022/04/22 01:40:44;;;;;;;7.72;5.32;;;;;;;;;;5003933;28;20509;-81
2022/04/22 01:43:10;;;;;;;11.30;5.28;;;;;;;;;;5006113;28;20465;-81
2022/04/22 01:45:37;;;;;;;8.35;5.40;;;;;;;;;;5004157;28;20445;-82
2022/04/22 01:48:03;;;;;;;7.30;5.50;;;;;;;;;;5000911;28;20434;-79
2022/04/22 01:50:29;;;;;;;11.65;5.82;;;;;;;;;;5006781;28;20445;-82
2022/04/22 01:52:56;;;;;;;9.60;5.70;;;;;;;;;;5005021;28;20431;-82
2022/04/22 01:55:24;;;;;;;8.07;5.65;;;;;;;;;;5006877;28;20429;-82
2022/04/22 01:57:50;;;;;;;7.30;5.20;;;;;;;;;;5003613;28;20436;-82
2022/04/22 02:00:16;;;;;;;9.07;5.20;;;;;;;;;;5001393;28;20437;-82
2022/04/22 02:02:42;;;;;;;8.30;5.40;;;;;;;;;;5001529;28;20491;-81
2022/04/22 02:05:09;;;;;;;8.10;5.60;;;;;;;;;;5002883;28;20433;-82
2022/04/22 02:07:35;;;;;;;7.22;5.10;;;;;;;;;;5001767;28;20445;-82
2022/04/22 02:10:01;;;;;;;10.60;5.50;;;;;;;;;;5002087;28;20490;-82
2022/04/22 02:12:29;;;;;;;8.52;5.70;;;;;;;;;;5001229;28;20899;-83
2022/04/22 02:14:56;;;;;;;10.40;5.72;;;;;;;;;;4999151;28;20440;-82
2022/04/22 02:17:22;;;;;;;10.68;5.90;;;;;;;;;;5000603;28;20424;-82
2022/04/22 02:19:48;;;;;;;8.25;5.50;;;;;;;;;;4999330;28;20427;-81
2022/04/22 02:22:15;;;;;;;11.17;5.93;;;;;;;;;;4998920;28;20473;-82
2022/04/22 02:24:41;;;;;;;8.55;5.40;;;;;;;;;;5000771;28;20527;-81
2022/04/22 02:29:52;;;;;;;10.30;5.90;;;;;;;;;;5001002;28;21308;-81
2022/04/22 02:32:19;;;;;;;8.77;5.78;;;;;;;;;;5000531;28;20422;-82
2022/04/22 02:34:45;;;;;;;9.35;6.00;;;;;;;;;;5004260;28;20434;-81
2022/04/22 02:37:11;;;;;;;6.80;5.47;;;;;;;;;;5001919;28;20425;-81
2022/04/22 02:39:38;;;;;;;7.80;5.80;;;;;;;;;;4999744;28;20434;-82
2022/04/22 02:47:34;;;;;;;9.13;5.82;;;;;;;;;;4999365;28;20424;-82
2022/04/22 02:50:00;;;;;;;9.63;6.00;;;;;;;;;;4998967;28;20475;-82
2022/04/22 02:52:26;;;;;;;11.30;6.40;;;;;;;;;;5001925;28;20422;-82
2022/04/22 02:54:54;;;;;;;11.50;5.93;;;;;;;;;;5001315;28;20441;-82
2022/04/22 02:57:20;;;;;;;8.13;6.20;;;;;;;;;;4997742;28;20430;-82
2022/04/22 02:59:48;;;;;;;8.02;6.07;;;;;;;;;;4999411;28;20434;-81
2022/04/22 03:02:14;;;;;;;7.78;5.90;;;;;;;;;;4998717;28;20425;-82
2022/04/22 03:04:42;;;;;;;8.30;5.80;;;;;;;;;;4999022;28;20436;-81
2022/04/22 03:07:08;;;;;;;8.00;6.13;;;;;;;;;;5000516;28;20472;-82
2022/04/22 03:09:35;;;;;;;10.23;6.47;;;;;;;;;;4998400;28;20991;-81
2022/04/22 03:12:01;;;;;;;8.30;6.18;;;;;;;;;;4999096;28;20507;-82
2022/04/22 03:14:29;;;;;;;11.70;6.60;;;;;;;;;;5002669;28;20445;-82
2022/04/22 03:16:55;;;;;;;9.05;5.90;;;;;;;;;;5000552;28;20890;-82
2022/04/22 03:19:22;;;;;;;9.70;6.60;;;;;;;;;;4999101;28;20440;-82
2022/04/22 03:21:49;;;;;;;10.45;6.80;;;;;;;;;;5001906;28;20902;-80
2022/04/22 03:24:16;;;;;;;10.02;6.38;;;;;;;;;;5002135;28;21027;-81
2022/04/22 03:26:42;;;;;;;9.95;6.18;;;;;;;;;;5000050;28;20441;-82
2022/04/22 03:29:08;;;;;;;10.32;6.03;;;;;;;;;;4999228;28;20429;-82
2022/04/22 03:31:34;;;;;;;11.15;7.30;;;;;;;;;;5000401;28;20922;-82
2022/04/22 03:34:01;;;;;;;10.95;6.93;;;;;;;;;;4999658;28;20433;-81
2022/04/22 03:36:27;;;;;;;12.30;7.40;;;;;;;;;;4999973;28;20432;-81
2022/04/22 03:38:54;;;;;;;10.65;6.72;;;;;;;;;;4999095;28;20442;-81
2022/04/22 03:41:21;;;;;;;8.95;6.07;;;;;;;;;;5001393;28;20496;-82
2022/04/22 03:43:47;;;;;;;9.48;7.30;;;;;;;;;;5001249;28;20457;-81
2022/04/22 03:46:13;;;;;;;10.10;6.25;;;;;;;;;;5003000;28;20417;-81
2022/04/22 03:48:41;;;;;;;9.90;6.70;;;;;;;;;;5004513;28;20439;-82
2022/04/22 03:51:07;;;;;;;10.65;6.30;;;;;;;;;;5003370;28;20451;-81
2022/04/22 03:53:36;;;;;;;10.35;6.35;;;;;;;;;;5004490;28;20434;-81
2022/04/22 03:58:45;;;;;;;9.82;6.20;;;;;;;;;;5000598;28;20419;-80
2022/04/22 04:01:11;;;;;;;9.70;6.60;;;;;;;;;;5002423;28;20523;-81
2022/04/22 04:03:37;;;;;;;10.63;6.28;;;;;;;;;;5003532;28;20427;-81
2022/04/22 04:06:03;;;;;;;8.90;6.60;;;;;;;;;;5003166;28;20451;-81
2022/04/22 04:08:30;;;;;;;11.20;6.30;;;;;;;;;;5003490;28;20438;-81
2022/04/22 04:16:25;;;;;;;9.50;6.05;;;;;;;;;;5006141;28;20489;-82
2022/04/22 04:18:51;;;;;;;9.65;7.00;;;;;;;;;;5005681;28;20515;-81
2022/04/22 04:24:01;;;;;;;9.80;6.70;;;;;;;;;;5003754;28;20453;-81
2022/04/22 04:26:27;;;;;;;9.93;7.25;;;;;;;;;;5004700;28;20441;-81
2022/04/22 04:28:55;;;;;;;10.80;6.90;;;;;;;;;;5005288;28;20437;-81
2022/04/22 04:31:22;;;;;;;12.82;7.30;;;;;;;;;;5004450;28;20526;-81
2022/04/22 04:33:49;;;;;;;8.90;7.07;;;;;;;;;;5003639;28;20425;-80
2022/04/22 04:36:15;;;;;;;11.48;7.38;;;;;;;;;;5003676;28;20449;-82
2022/04/22 04:38:42;;;;;;;10.15;6.63;;;;;;;;;;5008404;28;20431;-82
2022/04/22 04:41:10;;;;;;;10.45;6.13;;;;;;;;;;5000719;28;20434;-82
2022/04/22 04:43:38;;;;;;;9.10;6.22;;;;;;;;;;5002489;28;20771;-81
2022/04/22 04:46:08;;;;;;;11.32;6.75;;;;;;;;;;5002860;28;20444;-81
2022/04/22 04:48:35;;;;;;;9.82;6.82;;;;;;;;;;4996767;28;20427;-82
2022/04/22 04:51:01;;;;;;;12.57;6.90;;;;;;;;;;4999465;28;20440;-81
2022/04/22 04:53:27;;;;;;;11.52;6.47;;;;;;;;;;5002692;28;20414;-81
2022/04/22 04:55:54;;;;;;;11.75;6.60;;;;;;;;;;5001005;28;20494;-81
2022/04/22 04:58:20;;;;;;;9.23;6.60;;;;;;;;;;4999161;28;20430;-82
2022/04/22 05:00:47;;;;;;;8.48;6.30;;;;;;;;;;5001289;28;20441;-81
2022/04/22 05:03:14;;;;;;;9.52;6.10;;;;;;;;;;5001692;28;20830;-81
2022/04/22 05:05:40;;;;;;;9.13;5.90;;;;;;;;;;5003874;28;20434;-81
2022/04/22 05:08:07;;;;;;;11.27;7.00;;;;;;;;;;4999380;28;20426;-81
2022/04/22 05:10:34;;;;;;;8.85;6.30;;;;;;;;;;5000802;28;20434;-81
2022/04/22 05:13:01;;;;;;;10.63;6.00;;;;;;;;;;5000789;28;20430;-80
2022/04/22 05:15:28;;;;;;;9.88;6.40;;;;;;;;;;4999850;28;20443;-82
2022/04/22 05:17:55;;;;;;;7.95;5.80;;;;;;;;;;4997375;28;20434;-81
2022/04/22 05:20:25;;;;;;;9.73;6.00;;;;;;;;;;5001962;28;20440;-81
2022/04/22 05:22:52;;;;;;;10.23;6.50;;;;;;;;;;5001341;28;20430;-81
2022/04/22 05:25:18;;;;;;;11.90;6.50;;;;;;;;;;5002883;28;20481;-80
2022/04/22 05:27:44;;;;;;;8.77;5.47;;;;;;;;;;5001585;28;20425;-81
2022/04/22 05:32:55;;;;;;;10.37;6.50;;;;;;;;;;4998447;28;20425;-82
2022/04/22 05:35:26;;;;;;;9.77;6.10;;;;;;;;;;4998659;28;20442;-80
2022/04/22 05:37:52;;;;;;;10.02;6.10;;;;;;;;;;5001233;28;20468;-81
2022/04/22 05:40:20;;;;;;;9.32;6.30;;;;;;;;;;5002207;28;20437;-82
2022/04/22 05:42:46;;;;;;;10.68;6.35;;;;;;;;;;5001585;28;20467;-82
2022/04/22 05:45:13;;;;;;;9.80;6.05;;;;;;;;;;5004681;28;20484;-81
2022/04/22 05:47:40;;;;;;;12.27;7.10;;;;;;;;;;4999723;28;20454;-80
2022/04/22 05:50:07;;;;;;;10.82;5.88;;;;;;;;;;4999197;28;20860;-81
2022/04/22 05:52:35;;;;;;;9.75;6.30;;;;;;;;;;5000807;28;20430;-80
2022/04/22 05:55:03;;;;;;;12.35;6.63;;;;;;;;;;5000062;28;20437;-81
2022/04/22 05:57:30;;;;;;;9.32;6.40;;;;;;;;;;5000828;28;20512;-81
2022/04/22 05:59:56;;;;;;;9.00;6.40;;;;;;;;;;5003678;28;20506;-81
2022/04/22 06:02:22;;;;;;;8.98;6.40;;;;;;;;;;5001982;28;20446;-81
2022/04/22 06:04:49;;;;;;;10.45;6.45;;;;;;;;;;4998510;28;20490;-81
2022/04/22 06:07:15;;;;;;;8.68;6.10;;;;;;;;;;5001607;28;20414;-82
2022/04/22 06:12:26;;;;;;;8.48;5.85;;;;;;;;;;5004745;28;20812;-81
2022/04/22 06:14:53;;;;;;;8.53;5.83;;;;;;;;;;5001830;28;20844;-81
2022/04/22 06:17:19;;;;;;;11.80;7.00;;;;;;;;;;4999888;28;20462;-81
2022/04/22 06:19:45;;;;;;;11.10;6.20;;;;;;;;;;4999822;28;20437;-80
2022/04/22 06:22:12;;;;;;;10.18;6.50;;;;;;;;;;5004242;28;20421;-82
2022/04/22 06:24:38;;;;;;;13.43;6.50;;;;;;;;;;5004043;28;20842;-81
2022/04/22 06:27:06;;;;;;;12.45;6.45;;;;;;;;;;5002923;28;20996;-81
2022/04/22 06:29:32;;;;;;;8.18;6.20;;;;;;;;;;5008502;28;20418;-82
2022/04/22 06:31:58;;;;;;;10.15;6.60;;;;;;;;;;5002861;28;20536;-81
2022/04/22 06:34:25;;;;;;;12.18;6.75;;;;;;;;;;5005632;28;20479;-81
2022/04/22 06:36:51;;;;;;;13.23;6.40;;;;;;;;;;5002576;28;20450;-81
2022/04/22 06:39:18;;;;;;;9.57;6.03;;;;;;;;;;5003000;28;20441;-81
2022/04/22 06:47:14;;;;;;;14.15;6.32;;;;;;;;;;5004714;28;20420;-81
2022/04/22 06:49:41;;;;;;;12.65;7.10;;;;;;;;;;5005772;28;20414;-80
2022/04/22 06:52:09;;;;;;;9.73;6.45;;;;;;;;;;5005031;28;20441;-81
2022/04/22 06:54:36;;;;;;;8.63;6.25;;;;;;;;;;5002545;28;20519;-81
2022/04/22 06:57:03;;;;;;;10.40;6.77;;;;;;;;;;5001869;28;21006;-82
2022/04/22 06:59:31;;;;;;;11.30;7.25;;;;;;;;;;5000015;28;20485;-82
2022/04/22 07:01:57;;;;;;;11.13;6.28;;;;;;;;;;4999841;28;20428;-81
2022/04/22 07:04:24;;;;;;;11.30;6.80;;;;;;;;;;5005996;28;20498;-82
2022/04/22 07:06:51;;;;;;;11.85;6.72;;;;;;;;;;4997962;28;20836;-81
2022/04/22 07:09:17;;;;;;;12.00;6.80;;;;;;;;;;4997679;28;20433;-81
2022/04/22 07:11:44;;;;;;;11.60;6.78;;;;;;;;;;4998288;28;20863;-82
2022/04/22 07:14:11;;;;;;;10.83;6.70;;;;;;;;;;4997967;28;21007;-83
2022/04/22 07:16:42;;;;;;;11.00;6.30;;;;;;;;;;4994703;28;20512;-81
2022/04/22 07:19:09;;;;;;;8.25;6.07;;;;;;;;;;5000950;28;20445;-81
2022/04/22 07:21:36;;;;;;;8.38;6.40;;;;;;;;;;4999455;28;20440;-80
2022/04/22 07:24:02;;;;;;;9.10;6.55;;;;;;;;;;5001549;28;20474;-82
2022/04/22 07:26:28;;;;;;;7.27;6.00;;;;;;;;;;5003841;28;20487;-82
2022/04/22 07:28:57;;;;;;;8.68;6.35;;;;;;;;;;5002691;28;20476;-81
2022/04/22 07:31:24;;;;;;;8.70;6.97;;;;;;;;;;5003390;28;20449;-81
2022/04/22 07:33:53;;;;;;;8.82;6.43;;;;;;;;;;5004625;28;20492;-82
2022/04/22 07:36:19;;;;;;;10.00;6.90;;;;;;;;;;5004039;28;20436;-83
2022/04/22 07:38:46;;;;;;;12.80;6.40;;;;;;;;;;5002564;28;20782;-80
2022/04/22 07:41:12;;;;;;;9.35;6.50;;;;;;;;;;5006030;28;20427;-82
2022/04/22 07:49:09;;;;;;;11.15;6.63;;;;;;;;;;5005819;28;20441;-82
2022/04/22 07:51:35;;;;;;;8.70;6.00;;;;;;;;;;5004673;28;20437;-82
2022/04/22 07:54:01;;;;;;;8.18;6.10;;;;;;;;;;5003533;28;20420;-82
2022/04/22 07:56:28;;;;;;;12.02;6.90;;;;;;;;;;5004654;28;20486;-81
2022/04/22 07:58:56;;;;;;;11.38;6.63;;;;;;;;;;5002726;28;21001;-81
2022/04/22 08:01:22;;;;;;;8.52;6.43;;;;;;;;;;5005249;28;20426;-82
2022/04/22 08:03:48;;;;;;;9.25;6.30;;;;;;;;;;5003714;28;20446;-81
2022/04/22 08:06:16;;;;;;;8.20;6.57;;;;;;;;;;5005563;28;20432;-81
2022/04/22 08:08:42;;;;;;;9.70;6.50;;;;;;;;;;5004753;28;20520;-82
2022/04/22 08:11:08;;;;;;;9.60;6.18;;;;;;;;;;5007970;28;20415;-82
2022/04/22 08:13:35;;;;;;;7.35;5.97;;;;;;;;;;5006368;28;20437;-82
2022/04/22 08:16:01;;;;;;;9.40;6.97;;;;;;;;;;5005336;28;20476;-82
2022/04/22 08:18:27;;;;;;;12.50;6.77;;;;;;;;;;5007109;28;20500;-81
2022/04/22 08:20:54;;;;;;;9.50;6.43;;;;;;;;;;5007090;28;20777;-82
2022/04/22 08:23:22;;;;;;;7.65;6.68;;;;;;;;;;5006712;28;20424;-82
2022/04/22 08:25:49;;;;;;;9.38;6.65;;;;;;;;;;5006550;28;20461;-81
2022/04/22 08:28:15;;;;;;;10.55;7.38;;;;;;;;;;5006100;28;20484;-82
2022/04/22 08:30:41;;;;;;;9.98;6.50;;;;;;;;;;5006936;28;20903;-83
2022/04/22 08:33:07;;;;;;;11.67;6.57;;;;;;;;;;5004856;28;20430;-82
2022/04/22 08:35:36;;;;;;;8.68;6.20;;;;;;;;;;5006676;28;20478;-81
2022/04/22 08:38:03;;;;;;;9.43;7.00;;;;;;;;;;5004304;28;20509;-82
2022/04/22 08:40:32;;;;;;;10.57;7.45;;;;;;;;;;5006450;28;20434;-81
2022/04/22 08:43:00;;;;;;;8.93;6.70;;;;;;;;;;5006825;28;20416;-83
2022/04/22 08:45:27;;;;;;;8.02;6.63;;;;;;;;;;5005868;28;20467;-82
2022/04/22 08:50:39;;;;;;;11.43;7.45;;;;;;;;;;5005701;28;20449;-82
2022/04/22 08:53:06;;;;;;;8.32;7.03;;;;;;;;;;5005280;28;20418;-82
2022/04/22 08:55:34;;;;;;;10.68;7.10;;;;;;;;;;5004281;28;20464;-82
2022/04/22 08:58:03;;;;;;;9.40;6.50;;;;;;;;;;5005211;28;20426;-82
2022/04/22 09:00:32;;;;;;;9.13;6.45;;;;;;;;;;5003857;28;20434;-82
2022/04/22 09:02:58;;;;;;;8.35;7.07;;;;;;;;;;5005786;28;20456;-82
2022/04/22 09:05:25;;;;;;;8.00;6.90;;;;;;;;;;5004121;28;20565;-82
2022/04/22 09:07:51;;;;;;;11.25;7.50;;;;;;;;;;5006591;28;20433;-82
2022/04/22 09:10:18;;;;;;;12.05;7.93;;;;;;;;;;5004208;28;20480;-82
2022/04/22 09:12:52;;;;;;;9.82;7.25;;;;;;;;;;5009484;28;20477;-82
2022/04/22 09:15:19;;;;;;;11.70;7.20;;;;;;;;;;5005238;28;20500;-82
2022/04/22 09:17:46;;;;;;;9.75;6.88;;;;;;;;;;5007730;28;20435;-82
2022/04/22 09:20:13;;;;;;;10.77;7.30;;;;;;;;;;5004854;28;20437;-82
2022/04/22 09:22:40;;;;;;;8.50;6.93;;;;;;;;;;5003446;28;20435;-84
2022/04/22 09:25:06;;;;;;;9.60;6.90;;;;;;;;;;5002651;28;20437;-81
2022/04/22 09:27:33;;;;;;;12.38;7.90;;;;;;;;;;5001309;28;20453;-82
2022/04/22 09:30:02;;;;;;;14.52;7.80;;;;;;;;;;5004650;28;20422;-82
2022/04/22 09:32:29;;;;;;;10.10;7.30;;;;;;;;;;5002686;28;20488;-82
2022/04/22 09:34:57;;;;;;;10.30;7.30;;;;;;;;;;5001097;28;20447;-83
2022/04/22 09:42:52;;;;;;;11.68;7.10;;;;;;;;;;5000213;28;20428;-83
2022/04/22 09:45:20;;;;;;;11.50;7.10;;;;;;;;;;5000767;28;20434;-84
2022/04/22 09:47:56;;;;;;;9.30;7.00;;;;;;;;;;5002894;28;20504;-84
2022/04/22 09:50:38;;;;;;;8.30;7.32;;;;;;;;;;4997330;28;20462;-84
2022/04/22 09:53:06;;;;;;;10.05;6.72;;;;;;;;;;4980518;28;20419;-83
2022/04/22 09:55:35;;;;;;;10.60;7.50;;;;;;;;;;5001993;28;20438;-83
2022/04/22 09:58:02;;;;;;;11.55;7.40;;;;;;;;;;5003544;28;20427;-81
2022/04/22 10:00:30;;;;;;;8.97;7.57;;;;;;;;;;5001427;28;20433;-81
2022/04/22 10:02:56;;;;;;;9.55;7.22;;;;;;;;;;5001125;28;20494;-83
2022/04/22 10:05:23;;;;;;;9.85;7.28;;;;;;;;;;5001248;28;20928;-83
2022/04/22 10:07:51;;;;;;;11.93;7.57;;;;;;;;;;5002220;28;20430;-83
2022/04/22 10:10:18;;;;;;;10.52;7.40;;;;;;;;;;5000631;28;21074;-82
2022/04/22 10:12:45;;;;;;;9.67;7.20;;;;;;;;;;5003332;28;20491;-80
2022/04/22 10:15:11;;;;;;;9.70;6.93;;;;;;;;;;5002457;28;20434;-83
2022/04/22 10:17:39;;;;;;;11.20;7.20;;;;;;;;;;5004270;28;20483;-83
2022/04/22 10:20:07;;;;;;;10.55;7.15;;;;;;;;;;5003058;28;20857;-83
2022/04/22 10:22:34;;;;;;;10.90;7.10;;;;;;;;;;5003785;28;21391;-83
2022/04/22 10:25:01;;;;;;;12.65;6.57;;;;;;;;;;5004388;28;20788;-83
2022/04/22 10:27:31;;;;;;;8.53;6.60;;;;;;;;;;5002810;28;21252;-83
2022/04/22 10:29:59;;;;;;;10.35;7.00;;;;;;;;;;5003228;28;20424;-83
2022/04/22 10:32:25;;;;;;;8.30;6.30;;;;;;;;;;5000943;28;20422;-83
2022/04/22 10:34:57;;;;;;;11.32;7.00;;;;;;;;;;5001011;28;20436;-82
2022/04/22 10:37:25;;;;;;;9.68;6.50;;;;;;;;;;5001458;28;20433;-83
2022/04/22 10:39:51;;;;;;;8.38;6.90;;;;;;;;;;5002016;28;20457;-84
2022/04/22 10:42:18;;;;;;;8.52;6.45;;;;;;;;;;5001555;28;20413;-82
2022/04/22 10:47:37;;;;;;;11.90;6.72;;;;;;;;;;5002584;28;20501;-83
2022/04/22 10:50:22;;;;;;;10.77;6.60;;;;;;;;;;5003370;28;20416;-84
2022/04/22 10:52:55;;;;;;;8.30;6.57;;;;;;;;;;5004677;28;20463;-83
2022/04/22 10:55:22;;;;;;;9.25;6.90;;;;;;;;;;5001714;28;20534;-83
2022/04/22 10:57:51;;;;;;;7.90;6.20;;;;;;;;;;5003370;28;20475;-82
2022/04/22 11:00:30;;;;;;;7.10;6.40;;;;;;;;;;5001788;28;20571;-83
2022/04/22 11:03:04;;;;;;;10.13;6.07;;;;;;;;;;5000169;28;20535;-82
2022/04/22 11:05:38;;;;;;;10.05;7.10;;;;;;;;;;5005572;28;20433;-82
2022/04/22 11:08:05;;;;;;;8.00;6.57;;;;;;;;;;5004353;28;20907;-82
2022/04/22 11:10:47;;;;;;;8.13;6.50;;;;;;;;;;5003620;28;20442;-84
2022/04/22 11:13:26;;;;;;;13.03;7.20;;;;;;;;;;5002366;28;20420;-83
2022/04/22 11:15:53;;;;;;;10.38;7.18;;;;;;;;;;5003400;28;20463;-83
2022/04/22 11:18:21;;;;;;;7.43;6.43;;;;;;;;;;5004064;28;20459;-82
2022/04/22 11:20:51;;;;;;;8.00;6.35;;;;;;;;;;5001450;28;20430;-84
2022/04/22 11:23:17;;;;;;;9.27;6.80;;;;;;;;;;5001625;28;20844;-84
2022/04/22 11:25:44;;;;;;;8.10;6.00;;;;;;;;;;5006291;28;20418;-83
2022/04/22 11:28:11;;;;;;;9.63;6.50;;;;;;;;;;5000989;28;20465;-82
2022/04/22 11:30:37;;;;;;;7.45;6.15;;;;;;;;;;5000430;28;20442;-83
2022/04/22 11:33:12;;;;;;;8.45;5.70;;;;;;;;;;5003411;28;20426;-83
2022/04/22 11:35:39;;;;;;;9.73;6.07;;;;;;;;;;5002883;28;20482;-82
2022/04/22 11:38:07;;;;;;;8.20;6.13;;;;;;;;;;5001477;28;20987;-82
2022/04/22 11:40:35;;;;;;;12.57;6.72;;;;;;;;;;5001546;28;20445;-83
2022/04/22 11:43:05;;;;;;;9.95;6.72;;;;;;;;;;5002421;28;20512;-83
2022/04/22 11:45:35;;;;;;;14.02;6.80;;;;;;;;;;5000847;28;20448;-82
2022/04/22 11:48:06;;;;;;;8.60;5.90;;;;;;;;;;5000743;28;20831;-81
2022/04/22 11:50:36;;;;;;;6.45;5.85;;;;;;;;;;5001854;28;21268;-83
2022/04/22 11:53:03;;;;;;;8.98;6.40;;;;;;;;;;4997313;28;20840;-83
2022/04/22 11:55:30;;;;;;;8.57;6.03;;;;;;;;;;5001791;28;20466;-81
2022/04/22 11:57:57;;;;;;;9.80;6.80;;;;;;;;;;4998734;28;20432;-83
2022/04/22 12:05:51;;;;;;;9.65;6.85;;;;;;;;;;5000383;28;20431;-81
2022/04/22 12:08:18;;;;;;;8.35;6.30;;;;;;;;;;5001734;28;20805;-82
2022/04/22 12:10:47;;;;;;;10.50;6.53;;;;;;;;;;5005993;28;20426;-83
2022/04/22 12:13:14;;;;;;;7.60;5.95;;;;;;;;;;5004679;28;20436;-83
2022/04/22 12:15:43;;;;;;;6.03;5.40;;;;;;;;;;5003644;28;20429;-83
2022/04/22 12:18:25;;;;;;;7.60;5.70;;;;;;;;;;5004936;28;20440;-83
2022/04/22 12:20:51;;;;;;;6.50;5.80;;;;;;;;;;5004554;28;20470;-83
2022/04/22 12:23:18;;;;;;;8.23;5.80;;;;;;;;;;5004868;28;20451;-83
2022/04/22 12:25:55;;;;;;;7.70;5.70;;;;;;;;;;5003052;28;20476;-82
2022/04/22 12:28:21;;;;;;;8.68;5.60;;;;;;;;;;5004842;28;20424;-84
2022/04/22 12:30:48;;;;;;;7.68;5.53;;;;;;;;;;5004795;28;20430;-84
2022/04/22 12:33:17;;;;;;;7.80;5.60;;;;;;;;;;5002944;28;20433;-83
2022/04/22 12:35:45;;;;;;;8.65;6.60;;;;;;;;;;5015469;28;20502;-82
2022/04/22 12:38:13;;;;;;;8.25;6.25;;;;;;;;;;5017416;28;20439;-83
2022/04/22 12:40:47;;;;;;;8.50;6.23;;;;;;;;;;5015915;28;20432;-82
2022/04/22 12:43:27;;;;;;;6.85;5.82;;;;;;;;;;5009649;28;20499;-82
2022/04/22 12:54:20;;;;;;;11.00;6.30;;;;;;;;;;5021734;28;20436;-83
2022/04/22 12:56:50;;;;;;;9.10;6.20;;;;;;;;;;5017148;28;20458;-83
2022/04/22 12:59:18;;;;;;;7.80;6.40;;;;;;;;;;5019732;28;20806;-84
2022/04/22 13:01:46;;;;;;;7.95;6.28;;;;;;;;;;5020796;28;20519;-83
2022/04/22 13:04:20;;;;;;;8.40;6.77;;;;;;;;;;5018906;28;20428;-83
2022/04/22 13:06:48;;;;;;;8.50;6.20;;;;;;;;;;5020591;28;20429;-84
2022/04/22 13:09:15;;;;;;;9.45;6.75;;;;;;;;;;5008233;28;20508;-82
2022/04/22 13:11:42;;;;;;;10.23;6.50;;;;;;;;;;5014042;28;20425;-83
2022/04/22 13:14:09;;;;;;;10.00;6.80;;;;;;;;;;5019269;28;20424;-82
2022/04/22 13:16:36;;;;;;;9.37;6.27;;;;;;;;;;5013318;28;20935;-82
2022/04/22 13:19:03;;;;;;;9.88;6.63;;;;;;;;;;5008777;28;20418;-83
2022/04/22 13:21:29;;;;;;;7.80;6.10;;;;;;;;;;5013033;28;20425;-83
2022/04/22 13:23:56;;;;;;;9.73;5.80;;;;;;;;;;5020753;28;20430;-83
2022/04/22 13:26:22;;;;;;;6.13;5.53;;;;;;;;;;5012638;28;20428;-82
2022/04/22 13:28:49;;;;;;;8.15;5.85;;;;;;;;;;5013378;28;20428;-83
2022/04/22 13:31:16;;;;;;;8.68;6.10;;;;;;;;;;5011159;28;20468;-83
2022/04/22 13:33:43;;;;;;;10.50;6.43;;;;;;;;;;5007232;28;20423;-83
2022/04/22 13:36:11;;;;;;;6.38;5.07;;;;;;;;;;5013420;28;20551;-84
2022/04/22 13:38:38;;;;;;;7.67;5.93;;;;;;;;;;5008981;28;20464;-83
2022/04/22 13:41:05;;;;;;;7.50;5.50;;;;;;;;;;5016933;28;20531;-84
2022/04/22 13:43:31;;;;;;;8.02;4.97;;;;;;;;;;5014183;28;20924;-83
2022/04/22 13:54:07;;;;;;;7.68;4.70;;;;;;;;;;5009077;28;20763;-83
2022/04/22 13:56:33;;;;;;;6.75;4.55;;;;;;;;;;5012763;28;20818;-83
2022/04/22 13:58:59;;;;;;;5.53;4.22;;;;;;;;;;5004704;28;20780;-82
2022/04/22 14:01:26;;;;;;;9.45;4.20;;;;;;;;;;5022393;28;20451;-83
2022/04/22 14:03:52;;;;;;;5.93;4.35;;;;;;;;;;5019004;28;20822;-84
2022/04/22 14:06:18;;;;;;;6.68;3.90;;;;;;;;;;5008739;28;20521;-84
2022/04/22 14:08:46;;;;;;;7.18;3.40;;;;;;;;;;5017784;28;20435;-82
2022/04/22 14:11:12;;;;;;;5.10;3.20;;;;;;;;;;5012132;28;20455;-83
2022/04/22 14:13:39;;;;;;;3.88;3.05;;;;;;;;;;5011844;28;20432;-84
2022/04/22 14:16:05;;;;;;;7.27;3.30;;;;;;;;;;5010442;28;20530;-84
2022/04/22 14:18:33;;;;;;;3.83;3.40;;;;;;;;;;5010879;28;20416;-82
2022/04/22 14:21:00;;;;;;;3.77;3.00;;;;;;;;;;5008263;28;20437;-83
2022/04/22 14:23:26;;;;;;;4.70;2.83;;;;;;;;;;5021325;28;20416;-83
2022/04/22 14:25:55;;;;;;;5.97;2.92;;;;;;;;;;5008561;28;20947;-83
2022/04/22 14:28:22;;;;;;;5.87;3.50;;;;;;;;;;5016234;28;20412;-84
2022/04/22 14:30:48;;;;;;;4.50;3.25;;;;;;;;;;5012255;28;20429;-82
2022/04/22 14:33:14;;;;;;;5.93;3.70;;;;;;;;;;5012175;28;20496;-84
2022/04/22 14:35:41;;;;;;;11.68;4.70;;;;;;;;;;5008382;28;20885;-82
2022/04/22 14:38:07;;;;;;;10.38;4.00;;;;;;;;;;5013794;28;20421;-84
2022/04/22 14:40:33;;;;;;;8.13;3.60;;;;;;;;;;5006110;28;20445;-84
2022/04/22 14:43:01;;;;;;;8.37;4.80;;;;;;;;;;5010389;28;20490;-84
2022/04/22 14:45:28;;;;;;;4.22;3.20;;;;;;;;;;5017896;28;20513;-83
2022/04/22 14:47:55;;;;;;;5.20;3.35;;;;;;;;;;5014488;28;20412;-84
2022/04/22 14:50:21;;;;;;;5.72;3.38;;;;;;;;;;5016087;28;20454;-83
2022/04/22 14:52:48;;;;;;;4.25;3.15;;;;;;;;;;5004230;28;21170;-82
2022/04/22 14:55:14;;;;;;;6.43;4.37;;;;;;;;;;5021835;28;20501;-83
2022/04/22 14:57:40;;;;;;;5.97;3.80;;;;;;;;;;5013421;28;20471;-83
2022/04/22 15:00:09;;;;;;;6.35;3.50;;;;;;;;;;5012487;28;20477;-83
2022/04/22 15:02:35;;;;;;;14.27;4.75;;;;;;;;;;5014077;28;20424;-84
2022/04/22 15:05:01;;;;;;;5.60;3.50;;;;;;;;;;5010564;28;20428;-83
2022/04/22 15:07:29;;;;;;;7.20;3.50;;;;;;;;;;5014545;28;20822;-83
2022/04/22 15:09:55;;;;;;;4.35;3.30;;;;;;;;;;5007469;28;20423;-82
2022/04/22 15:12:22;;;;;;;6.40;3.28;;;;;;;;;;5011532;28;20434;-84
2022/04/22 15:14:48;;;;;;;5.80;3.83;;;;;;;;;;5016403;28;20409;-83
2022/04/22 15:17:16;;;;;;;6.60;4.35;;;;;;;;;;5021987;28;20483;-84
2022/04/22 15:25:09;;;;;;;8.40;4.17;;;;;;;;;;5014272;28;20751;-83
2022/04/22 15:27:36;;;;;;;9.15;4.10;;;;;;;;;;5014700;28;20826;-84
2022/04/22 15:30:03;;;;;;;6.13;4.28;;;;;;;;;;5012689;28;20736;-83
2022/04/22 15:32:31;;;;;;;7.85;3.92;;;;;;;;;;5009185;28;20559;-83
2022/04/22 15:34:58;;;;;;;7.40;3.65;;;;;;;;;;5015376;28;20420;-83
2022/04/22 15:37:24;;;;;;;4.88;3.70;;;;;;;;;;5017609;28;20570;-84
2022/04/22 15:39:51;;;;;;;6.10;4.07;;;;;;;;;;5005118;28;20436;-84
2022/04/22 15:42:17;;;;;;;5.30;4.13;;;;;;;;;;5010096;28;20470;-83
2022/04/22 15:44:45;;;;;;;7.00;4.50;;;;;;;;;;5001300;28;21010;-81
2022/04/22 15:47:11;;;;;;;8.30;4.15;;;;;;;;;;5001317;28;20408;-83
2022/04/22 15:49:40;;;;;;;5.90;4.10;;;;;;;;;;4993617;28;20438;-82
2022/04/22 15:52:08;;;;;;;5.18;3.97;;;;;;;;;;5004650;28;20430;-83
2022/04/22 15:54:34;;;;;;;6.60;4.63;;;;;;;;;;5003075;28;20825;-83
2022/04/22 15:57:00;;;;;;;6.05;4.90;;;;;;;;;;5010602;28;20432;-82
2022/04/22 15:59:26;;;;;;;5.10;4.07;;;;;;;;;;5002543;28;20461;-82